Miercoles, 29 de Junio del 2016

portal contactenos mapa del sitio buscar Revisar Correo Corporativo

|Reporte METAR por Reginal » ||Reporte TAF por Reginal » ||Reporte METAR, TAF y SINÓPTICO »

Reporte METAR por Regional

|| La Paz || Santa Cruz || Cochabamba || Beni - Pando ||

Informe METAR emitido cada hora.

Regional La Paz

ESTACIÓN

AEROPUERTO

HORA UTC

DESCRIPCIÓN

SLRY

Reyes

14-18S|67-21W

19:00

COR SLRY 291900Z 00000KT 9999 NSC 28/20 Q1016 A3001 HR64 CI RWY OPR 1 100M=

SLRQ

Rurrenabaque

14-25S|67-29W

19:00

SLRQ 291900Z 30010KT 9999 FEW017 BKN200 28/22 Q1015 A2998 HR68=

SLAP

Apolo

14-44S|68-24W

-

Mensaje no Recibido

SLSB

San Borja

14-51S|66-44W

19:00

SLSB 291900Z 35005KT 9999 NSC 29/20 Q1014 A2997 CI HR59 RWY NML=

SLLP

Internaciónal El Alto

16-08S|68-10W

19:00

SLLP 291900Z 27013G23KT 230V320 9999 SCT017 12/M08 Q1038 A3067 628.4 P93// HR23 NOSIG=

SLCN

Charaña

17-35S|69-25W

-

Mensaje no Recibido

SLOR

Oruro

17-57S|67-04W

19:00

SLOR 291900Z 30008KT 9999 SCT017 11/00 Q1037 A3065 657.9 HR47 AC=

SLUY

Uyuni

20-27S|62-52W

-

SLUY QRX 292100Z=

Regional Cochabamba

ESTACIÓN

AEROPUERTO

HORA UTC

DESCRIPCIÓN

SLCB

Cochabamba

17-25S|66-10W

19:00

SLCB 291900Z 28008KT 230V320 9999 FEW030 25/M07 Q1024 A3025 750.8 HR13 FU CI NOSIG=

SLAL

Sucre (Alcantari)

19-14S|65-09W

19:00

SLAL 291900Z 28010KT 9999 NSC 19/M08 Q1027 A3033 HR16=

SLPO

Potosí

19-32S|65-43W

19:00

SLPO 291900Z 24014KT 9999 NSC 12/M05 Q1034 A3053 HR31=

SLAG

Monteagudo

19-49S|63-58W

19:00

SLAG 291900Z WO ATTN=